Time;durP1;ratioP1;P1;durP2;ratioP2;P2;SDS_P1;SDS_P2;PMS_P1;PMS_P2;Temp;Humidity;BMP_temperature;BMP_pressure;BME280_temperature;BME280_humidity;BME280_pressure;Samples;Min_cycle;Max_cycle;Signal;HPM_P1;HPM_P2
2021/01/20 00:02:18;;;;;;;2.22;2.03;;;1.90;96.50;;;;;;6373061;27;20150;-75
2021/01/20 00:05:19;;;;;;;2.25;2.05;;;1.80;99.90;;;;;;6354706;27;20049;-75
2021/01/20 00:08:19;;;;;;;5.38;2.60;;;2.10;95.70;;;;;;6372907;27;20027;-75
2021/01/20 00:11:20;;;;;;;2.90;2.30;;;2.90;96.10;;;;;;6372815;27;20027;-75
2021/01/20 00:14:20;;;;;;;2.55;2.00;;;3.10;95.40;;;;;;6372826;27;20492;-76
2021/01/20 00:17:21;;;;;;;2.90;1.92;;;2.40;96.50;;;;;;6372883;27;20027;-76
2021/01/20 00:20:22;;;;;;;1.73;1.63;;;;;;;;;;6372743;27;20034;-76
2021/01/20 00:23:23;;;;;;;1.98;1.77;;;1.80;99.90;;;;;;6372719;27;20031;-75
2021/01/20 00:26:23;;;;;;;1.70;1.60;;;2.20;96.60;;;;;;6372763;27;20505;-75
2021/01/20 00:29:24;;;;;;;2.53;2.00;;;1.80;95.70;;;;;;6373147;28;20398;-77
2021/01/20 00:32:24;;;;;;;2.83;2.10;;;3.10;96.00;;;;;;6372796;28;20152;-76
2021/01/20 00:35:25;;;;;;;4.78;2.70;;;2.40;95.30;;;;;;6372716;28;20556;-75
2021/01/20 00:38:26;;;;;;;2.53;2.30;;;1.80;95.70;;;;;;6372503;27;20054;-75
2021/01/20 00:41:26;;;;;;;3.90;2.50;;;2.60;95.80;;;;;;6372634;28;20031;-76
2021/01/20 00:44:27;;;;;;;2.45;2.20;;;1.70;95.30;;;;;;6372566;27;20034;-75
2021/01/20 00:47:27;;;;;;;3.35;2.67;;;1.70;96.20;;;;;;6372528;28;20023;-74
2021/01/20 00:50:28;;;;;;;2.33;2.13;;;1.60;95.60;;;;;;6372559;28;20027;-75
2021/01/20 00:53:29;;;;;;;2.47;2.28;;;3.20;97.00;;;;;;6372341;28;20038;-76
2021/01/20 00:56:30;;;;;;;3.10;2.25;;;;;;;;;;6374607;27;20019;-75
2021/01/20 00:59:30;;;;;;;2.58;2.20;;;1.50;99.90;;;;;;6377567;27;20023;-76
2021/01/20 01:02:31;;;;;;;3.03;2.03;;;2.70;96.70;;;;;;6377486;27;20030;-77
2021/01/20 01:05:32;;;;;;;2.97;2.20;;;1.30;99.90;;;;;;6376974;27;20116;-75
2021/01/20 01:08:32;;;;;;;2.70;2.08;;;1.60;96.40;;;;;;6377227;27;20015;-75
2021/01/20 01:11:33;;;;;;;3.53;2.28;;;2.20;96.10;;;;;;6377182;27;20168;-75
2021/01/20 01:14:34;;;;;;;4.35;2.67;;;2.30;96.50;;;;;;6377173;27;20088;-77
2021/01/20 01:17:35;;;;;;;3.25;2.38;;;3.20;96.50;;;;;;6376989;27;20418;-76
2021/01/20 01:20:36;;;;;;;3.30;2.45;;;2.20;96.00;;;;;;6377148;27;20037;-75
2021/01/20 01:23:36;;;;;;;2.03;1.90;;;2.70;96.50;;;;;;6377175;27;20027;-74
2021/01/20 01:26:37;;;;;;;2.00;1.67;;;1.60;95.80;;;;;;6377132;27;20076;-76
2021/01/20 01:29:37;;;;;;;2.08;1.67;;;1.50;96.20;;;;;;6376975;27;20019;-76
2021/01/20 01:32:38;;;;;;;2.58;2.20;;;1.50;99.90;;;;;;6376602;27;20038;-77
2021/01/20 01:35:39;;;;;;;2.28;2.00;;;2.40;96.00;;;;;;6376547;27;20069;-77
2021/01/20 01:38:39;;;;;;;2.90;2.13;;;1.60;96.30;;;;;;6376713;27;20388;-75
2021/01/20 01:41:40;;;;;;;2.63;2.42;;;1.40;94.90;;;;;;6376607;27;20450;-75
2021/01/20 01:44:41;;;;;;;2.78;2.20;;;2.70;96.10;;;;;;6376261;27;20034;-76
2021/01/20 01:47:43;;;;;;;2.60;2.17;;;1.30;99.90;;;;;;6376446;27;20461;-76
2021/01/20 01:50:47;;;;;;;2.60;2.15;;;1.20;99.90;;;;;;6376158;27;20043;-76
2021/01/20 01:53:49;;;;;;;2.25;1.70;;;1.30;97.30;;;;;;6357937;27;20035;-75
2021/01/20 01:56:50;;;;;;;2.67;2.05;;;1.30;96.70;;;;;;6357872;27;20037;-76
2021/01/20 01:59:50;;;;;;;2.33;1.85;;;2.90;97.50;;;;;;6357655;27;20365;-75
2021/01/20 02:02:51;;;;;;;2.13;1.85;;;1.90;96.30;;;;;;6375860;27;20030;-76
2021/01/20 02:05:52;;;;;;;2.00;1.80;;;2.70;96.90;;;;;;6375642;27;20043;-75
2021/01/20 02:08:52;;;;;;;2.15;1.90;;;2.80;97.00;;;;;;6374665;27;20027;-75
2021/01/20 02:12:25;;;;;;;2.10;1.90;;;1.50;96.50;;;;;;6357203;27;20063;-76
2021/01/20 02:16:06;;;;;;;2.15;1.92;;;1.40;95.70;;;;;;6357485;27;20065;-77
2021/01/20 02:19:09;;;;;;;1.88;1.70;;;1.40;95.80;;;;;;6357408;27;20031;-75
2021/01/20 02:22:22;;;;;;;2.35;1.90;;;2.40;96.00;;;;;;6357252;27;20015;-75
2021/01/20 02:25:26;;;;;;;;;;;1.40;95.40;;;;;;6358159;27;20084;-76
2021/01/20 02:28:48;;;;;;;1.60;1.50;;;2.40;96.60;;;;;;6356982;27;20338;-75
2021/01/20 02:31:49;;;;;;;1.75;1.65;;;1.50;95.70;;;;;;6375116;27;20360;-74
2021/01/20 02:34:49;;;;;;;1.83;1.67;;;2.70;96.70;;;;;;6375122;27;20023;-75
2021/01/20 02:37:50;;;;;;;2.40;2.10;;;2.50;95.70;;;;;;6340014;27;20461;-76
2021/01/20 02:40:51;;;;;;;2.15;1.95;;;1.40;96.80;;;;;;6339730;27;20111;-75
2021/01/20 02:43:52;;;;;;;2.78;2.17;;;1.50;96.30;;;;;;6374859;27;20445;-77
2021/01/20 02:46:52;;;;;;;2.20;2.00;;;2.40;96.90;;;;;;6374685;27;20430;-75
2021/01/20 02:49:54;;;;;;;1.85;1.75;;;1.40;99.90;;;;;;6356697;27;20023;-76
2021/01/20 02:53:11;;;;;;;2.28;2.08;;;2.30;96.40;;;;;;6356398;27;20035;-75
2021/01/20 02:56:11;;;;;;;2.00;1.77;;;1.40;95.70;;;;;;6374915;27;20034;-77
2021/01/20 02:59:12;;;;;;;4.10;2.95;;;1.40;96.70;;;;;;6339430;27;20023;-76
2021/01/20 03:02:13;;;;;;;9.65;6.07;;;2.90;97.30;;;;;;6356036;27;20167;-75
2021/01/20 03:05:14;;;;;;;4.20;3.22;;;1.90;99.90;;;;;;6374884;27;20070;-76
2021/01/20 03:08:14;;;;;;;8.13;6.18;;;2.80;96.30;;;;;;6356014;27;20075;-75
2021/01/20 03:11:15;;;;;;;2.40;2.20;;;1.90;96.00;;;;;;6374794;27;20027;-76
2021/01/20 03:14:16;;;;;;;7.18;3.80;;;2.30;96.40;;;;;;6374044;27;20039;-75
2021/01/20 03:17:17;;;;;;;2.55;2.35;;;3.20;97.10;;;;;;6355923;27;20371;-76
2021/01/20 03:20:17;;;;;;;5.75;4.55;;;1.20;99.90;;;;;;6373806;27;20023;-76
2021/01/20 03:23:18;;;;;;;6.32;4.90;;;1.60;99.90;;;;;;6374158;27;20039;-74
2021/01/20 03:26:18;;;;;;;2.42;2.22;;;2.10;97.10;;;;;;6373845;27;20023;-75
2021/01/20 03:29:19;;;;;;;2.92;2.20;;;2.00;96.70;;;;;;6374048;27;20041;-76
2021/01/20 03:32:20;;;;;;;2.20;1.98;;;2.60;97.00;;;;;;6374002;27;20027;-75
2021/01/20 03:35:20;;;;;;;1.98;1.80;;;1.70;96.30;;;;;;6373575;27;20038;-75
2021/01/20 03:38:21;;;;;;;2.25;1.70;;;1.50;96.90;;;;;;6373593;27;20467;-75
2021/01/20 03:41:21;;;;;;;2.40;2.08;;;1.60;96.60;;;;;;6373443;27;20075;-77
2021/01/20 03:44:22;;;;;;;1.90;1.80;;;1.40;95.50;;;;;;6373530;27;20453;-76
2021/01/20 03:47:23;;;;;;;2.58;2.30;;;1.80;96.20;;;;;;6373329;27;20029;-77
2021/01/20 03:50:23;;;;;;;2.53;2.10;;;2.70;96.60;;;;;;6373537;27;20623;-77
2021/01/20 03:53:24;;;;;;;2.33;2.13;;;2.50;96.70;;;;;;6373276;27;20027;-76
2021/01/20 03:56:25;;;;;;;2.90;1.77;;;1.50;99.90;;;;;;6373082;27;20046;-75
2021/01/20 03:59:25;;;;;;;1.95;1.85;;;2.40;96.00;;;;;;6373315;27;20045;-75
2021/01/20 04:02:26;;;;;;;1.33;1.30;;;2.40;96.00;;;;;;6372987;27;20015;-76
2021/01/20 04:05:26;;;;;;;1.75;1.65;;;1.50;96.30;;;;;;6373069;27;20434;-77
2021/01/20 04:08:27;;;;;;;1.70;1.60;;;2.90;96.80;;;;;;6372943;27;20019;-77
2021/01/20 04:11:28;;;;;;;1.65;1.48;;;2.50;96.20;;;;;;6373184;27;20019;-76
2021/01/20 04:14:28;;;;;;;2.28;1.70;;;3.10;96.20;;;;;;6372929;27;20096;-75
2021/01/20 04:17:29;;;;;;;3.10;1.85;;;2.80;95.30;;;;;;6373031;27;20104;-76
2021/01/20 04:20:29;;;;;;;3.22;2.53;;;1.50;95.20;;;;;;6372870;27;20046;-75
2021/01/20 04:23:30;;;;;;;1.80;1.70;;;1.70;96.20;;;;;;6372626;27;20045;-76
2021/01/20 04:26:31;;;;;;;2.00;1.80;;;2.60;96.10;;;;;;6372722;27;20424;-76
2021/01/20 04:29:31;;;;;;;1.52;1.42;;;1.90;96.10;;;;;;6372608;27;20027;-76
2021/01/20 04:32:32;;;;;;;1.55;1.23;;;2.10;99.90;;;;;;6380947;27;20059;-76
2021/01/20 04:35:32;;;;;;;1.80;1.70;;;3.50;94.90;;;;;;6381090;27;20035;-75
2021/01/20 04:38:34;;;;;;;2.05;1.75;;;2.80;94.90;;;;;;6381290;27;20029;-78
2021/01/20 04:41:35;;;;;;;2.15;1.95;;;2.40;94.40;;;;;;6381096;27;20071;-76
2021/01/20 04:44:35;;;;;;;2.70;2.25;;;2.30;94.10;;;;;;6381111;27;20457;-76
2021/01/20 04:47:36;;;;;;;1.67;1.58;;;2.60;99.90;;;;;;6381297;27;20024;-75
2021/01/20 04:50:37;;;;;;;1.58;1.48;;;3.40;99.60;;;;;;6362892;27;20123;-76
2021/01/20 04:53:38;;;;;;;2.00;1.83;;;3.00;93.50;;;;;;6381052;27;20063;-76
2021/01/20 04:56:39;;;;;;;2.10;1.90;;;3.00;93.20;;;;;;6380796;27;20071;-76
2021/01/20 04:59:42;;;;;;;2.13;1.90;;;3.80;94.10;;;;;;6381085;27;20019;-76
2021/01/20 05:02:43;;;;;;;2.30;1.92;;;3.70;93.10;;;;;;6380862;27;20019;-76
2021/01/20 05:05:45;;;;;;;2.03;1.83;;;2.50;93.30;;;;;;6328414;27;20441;-76
2021/01/20 05:08:45;;;;;;;3.55;1.90;;;3.30;93.80;;;;;;6345381;27;20026;-77
2021/01/20 05:11:46;;;;;;;7.35;4.38;;;3.40;93.40;;;;;;6380593;27;20453;-77
2021/01/20 05:14:46;;;;;;;2.20;2.00;;;3.30;94.00;;;;;;6380838;27;20031;-76
2021/01/20 05:17:58;;;;;;;2.55;2.20;;;2.20;93.10;;;;;;6380621;27;20027;-77
2021/01/20 05:20:59;;;;;;;3.15;2.33;;;2.90;94.20;;;;;;6380499;27;20088;-76
2021/01/20 05:24:22;;;;;;;2.55;2.20;;;2.30;99.90;;;;;;6345326;27;20067;-76
2021/01/20 05:27:25;;;;;;;;;;;2.30;92.40;;;;;;6380896;27;20015;-76
2021/01/20 05:30:26;;;;;;;2.38;2.17;;;3.30;93.60;;;;;;6380887;27;19899;-76
2021/01/20 05:33:39;;;;;;;2.40;2.20;;;2.50;92.70;;;;;;6380673;27;20042;-77
2021/01/20 05:36:40;;;;;;;2.20;2.00;;;2.90;93.70;;;;;;6380862;27;20024;-77
2021/01/20 05:39:40;;;;;;;3.63;2.50;;;3.10;93.30;;;;;;6380496;27;20055;-77
2021/01/20 05:42:50;;;;;;;2.72;2.40;;;2.50;92.70;;;;;;6378414;27;20079;-76
2021/01/20 05:45:51;;;;;;;2.13;1.92;;;3.90;93.70;;;;;;6376547;27;20038;-76
2021/01/20 05:48:52;;;;;;;2.30;2.10;;;3.40;92.00;;;;;;6376464;27;20031;-76
2021/01/20 05:51:52;;;;;;;3.40;2.75;;;3.70;92.00;;;;;;6376350;27;20457;-75
2021/01/20 05:54:53;;;;;;;2.10;1.90;;;3.00;99.90;;;;;;6358030;27;20473;-76
2021/01/20 05:57:54;;;;;;;2.67;2.33;;;3.80;91.40;;;;;;6376322;27;20029;-76
2021/01/20 06:01:14;;;;;;;5.72;2.33;;;3.60;92.10;;;;;;6376207;27;20452;-76
2021/01/20 06:04:15;;;;;;;4.10;3.20;;;3.60;91.50;;;;;;6357488;27;20086;-76
2021/01/20 06:07:16;;;;;;;5.03;3.60;;;3.60;92.40;;;;;;6340775;27;20019;-76
2021/01/20 06:10:17;;;;;;;3.70;2.78;;;2.60;99.90;;;;;;6375953;27;20025;-75
2021/01/20 06:13:18;;;;;;;2.88;2.10;;;2.50;91.80;;;;;;6375858;27;20449;-76
2021/01/20 06:16:25;;;;;;;5.63;2.75;;;2.80;92.90;;;;;;6375913;27;20092;-76
2021/01/20 06:19:26;;;;;;;2.78;2.55;;;2.50;91.50;;;;;;6341094;27;20051;-76
2021/01/20 06:22:27;;;;;;;4.45;2.65;;;3.30;93.20;;;;;;6357387;27;20023;-76
2021/01/20 06:25:32;;;;;;;3.47;2.60;;;2.80;99.90;;;;;;6375744;27;20339;-76
2021/01/20 06:28:33;;;;;;;2.75;2.28;;;3.50;91.80;;;;;;6340424;27;20155;-76
2021/01/20 06:31:40;;;;;;;3.85;3.20;;;3.80;92.10;;;;;;6357359;27;20441;-76
2021/01/20 06:34:55;;;;;;;3.15;2.65;;;2.90;90.70;;;;;;6340711;27;20023;-77
2021/01/20 06:37:55;;;;;;;3.55;2.70;;;2.90;90.80;;;;;;6375475;27;20030;-78
2021/01/20 06:41:45;;;;;;;3.25;2.80;;;2.80;91.50;;;;;;6375266;27;20418;-76
2021/01/20 06:45:12;;;;;;;3.97;2.88;;;2.80;90.70;;;;;;6357441;27;20043;-77
2021/01/20 06:48:12;;;;;;;6.05;3.42;;;2.80;91.00;;;;;;6375367;27;20023;-76
2021/01/20 06:51:13;;;;;;;4.20;3.10;;;2.80;99.90;;;;;;6374970;27;20027;-77
2021/01/20 06:54:14;;;;;;;5.25;3.38;;;2.70;91.90;;;;;;6374443;27;20066;-76
2021/01/20 06:57:27;;;;;;;6.95;3.55;;;4.20;92.70;;;;;;6374843;27;20019;-76
2021/01/20 07:00:27;;;;;;;;;;;2.80;91.30;;;;;;6375412;27;20062;-77
2021/01/20 07:03:41;;;;;;;5.60;3.40;;;2.80;92.40;;;;;;6374695;27;19905;-76
2021/01/20 07:06:41;;;;;;;5.13;3.20;;;2.90;99.30;;;;;;6374830;27;20131;-76
2021/01/20 07:09:51;;;;;;;3.72;3.05;;;3.20;91.80;;;;;;6374404;27;20023;-76
2021/01/20 07:13:10;;;;;;;3.13;2.50;;;3.00;92.50;;;;;;6374570;27;20031;-76
2021/01/20 07:16:11;;;;;;;2.40;2.20;;;3.90;91.70;;;;;;6374713;27;20092;-76
2021/01/20 07:19:11;;;;;;;3.05;2.75;;;3.30;92.00;;;;;;6374533;27;20027;-76
2021/01/20 07:22:13;;;;;;;5.28;3.38;;;3.00;98.80;;;;;;6338860;27;20023;-76
2021/01/20 07:25:13;;;;;;;5.53;3.80;;;3.80;91.70;;;;;;6374584;27;20019;-77
2021/01/20 07:28:14;;;;;;;4.57;3.50;;;3.20;92.50;;;;;;6338733;27;20030;-76
2021/01/20 07:31:16;;;;;;;4.50;3.28;;;3.00;92.30;;;;;;6374158;27;20465;-76
2021/01/20 07:34:17;;;;;;;4.80;4.13;;;3.10;92.40;;;;;;6373884;27;20039;-76
2021/01/20 07:37:17;;;;;;;5.30;3.65;;;2.80;99.90;;;;;;6373877;27;20038;-76
2021/01/20 07:40:19;;;;;;;17.35;5.82;;;3.40;98.20;;;;;;6355726;27;20119;-76
2021/01/20 07:43:21;;;;;;;7.68;4.60;;;2.90;91.60;;;;;;6373642;27;20019;-76
2021/01/20 07:46:22;;;;;;;5.88;4.10;;;3.10;91.70;;;;;;6373915;27;20488;-76
2021/01/20 07:49:23;;;;;;;7.55;3.60;;;3.10;92.90;;;;;;6373543;27;20027;-76
2021/01/20 07:52:23;;;;;;;7.75;4.00;;;3.00;92.50;;;;;;6373706;27;20059;-77
2021/01/20 07:55:24;;;;;;;6.45;3.45;;;3.20;93.00;;;;;;6373513;27;20031;-76
2021/01/20 07:58:28;;;;;;;5.93;3.78;;;3.80;93.20;;;;;;6373716;27;20102;-76
2021/01/20 08:01:29;;;;;;;4.60;3.90;;;3.50;92.70;;;;;;6373313;27;20061;-76
2021/01/20 08:04:30;;;;;;;4.10;3.20;;;3.50;92.40;;;;;;6373196;27;20529;-76
2021/01/20 08:07:31;;;;;;;5.80;3.22;;;3.60;91.80;;;;;;6372850;27;20031;-77
2021/01/20 08:10:31;;;;;;;5.07;3.45;;;3.30;97.70;;;;;;6373139;27;20026;-76
2021/01/20 08:13:32;;;;;;;4.05;3.10;;;3.00;99.90;;;;;;6355072;27;20038;-77
2021/01/20 08:16:34;;;;;;;4.70;3.45;;;3.80;91.50;;;;;;6337800;27;20460;-76
2021/01/20 08:19:34;;;;;;;5.68;3.67;;;3.60;92.20;;;;;;6355063;27;20027;-76
2021/01/20 08:22:35;;;;;;;5.72;3.58;;;3.50;91.40;;;;;;6354731;27;20039;-77
2021/01/20 08:25:35;;;;;;;5.93;3.53;;;4.20;91.90;;;;;;6372987;27;20023;-76
2021/01/20 08:28:36;;;;;;;5.50;4.15;;;4.00;91.00;;;;;;6372837;28;20025;-76
2021/01/20 08:31:41;;;;;;;7.95;4.50;;;4.20;97.50;;;;;;6354889;28;20031;-76
2021/01/20 08:34:42;;;;;;;5.72;4.20;;;3.90;91.50;;;;;;6372639;28;20038;-76
2021/01/20 08:37:43;;;;;;;4.35;3.75;;;4.00;90.90;;;;;;6373247;28;20368;-76
2021/01/20 08:40:44;;;;;;;5.65;5.10;;;3.70;91.10;;;;;;6372985;28;20062;-76
2021/01/20 08:43:44;;;;;;;3.45;3.03;;;3.90;90.60;;;;;;6354443;28;20019;-77
2021/01/20 08:46:51;;;;;;;4.05;3.25;;;4.20;90.10;;;;;;6372767;27;20467;-76
2021/01/20 08:49:55;;;;;;;6.88;3.47;;;4.20;90.40;;;;;;6372819;28;20023;-75
2021/01/20 08:52:57;;;;;;;5.00;3.83;;;4.60;88.40;;;;;;6354639;28;20027;-76
2021/01/20 08:55:58;;;;;;;4.20;3.47;;;4.70;90.20;;;;;;6372685;28;20011;-76
2021/01/20 08:58:58;;;;;;;4.25;3.03;;;4.70;89.30;;;;;;6372736;28;20030;-77
2021/01/20 09:02:18;;;;;;;4.22;3.30;;;4.50;89.50;;;;;;6372614;28;20026;-75
2021/01/20 09:05:32;;;;;;;5.60;3.50;;;4.60;88.40;;;;;;6372582;28;20066;-76
2021/01/20 09:08:36;;;;;;;5.45;3.58;;;4.50;86.70;;;;;;6372420;27;20035;-76
2021/01/20 09:11:38;;;;;;;9.73;4.72;;;4.80;87.50;;;;;;6372819;27;20536;-76
2021/01/20 09:14:39;;;;;;;6.05;4.13;;;4.70;85.50;;;;;;6354058;28;20043;-76
2021/01/20 09:17:40;;;;;;;5.22;3.90;;;4.70;86.60;;;;;;6374931;27;20106;-76
2021/01/20 09:20:40;;;;;;;14.77;8.70;;;4.90;95.80;;;;;;6377048;27;20350;-77
2021/01/20 09:23:41;;;;;;;11.73;8.68;;;4.90;84.60;;;;;;6377317;27;20022;-77
2021/01/20 09:26:41;;;;;;;8.63;4.45;;;5.10;85.40;;;;;;6377146;27;20019;-76
2021/01/20 09:29:42;;;;;;;7.85;5.47;;;5.00;83.20;;;;;;6377008;27;20023;-77
2021/01/20 09:32:43;;;;;;;5.97;3.50;;;5.20;84.10;;;;;;6376999;27;20034;-77
2021/01/20 09:35:46;;;;;;;6.57;4.50;;;5.10;99.90;;;;;;6376727;27;20027;-76
2021/01/20 09:38:46;;;;;;;7.43;3.45;;;5.40;93.30;;;;;;6376848;27;20034;-77
2021/01/20 09:41:47;;;;;;;7.50;3.55;;;5.50;84.30;;;;;;6358319;27;20015;-75
2021/01/20 09:44:47;;;;;;;5.50;3.47;;;5.20;82.30;;;;;;6376886;27;20030;-76
2021/01/20 09:47:48;;;;;;;4.70;3.97;;;5.60;83.60;;;;;;6376499;27;20019;-77
2021/01/20 09:50:49;;;;;;;5.50;3.97;;;5.60;82.90;;;;;;6376821;27;20025;-78
2021/01/20 09:53:49;;;;;;;5.28;3.50;;;5.60;83.40;;;;;;6376473;27;20110;-77
2021/01/20 09:56:50;;;;;;;5.68;4.13;;;5.40;82.30;;;;;;6376462;27;20024;-76
2021/01/20 09:59:51;;;;;;;3.47;3.10;;;5.50;80.90;;;;;;6376324;27;20075;-76
2021/01/20 10:02:51;;;;;;;16.65;13.10;;;5.80;81.20;;;;;;6376182;27;20372;-76
2021/01/20 10:05:52;;;;;;;24.33;18.58;;;5.70;79.10;;;;;;6376016;27;20134;-76
2021/01/20 10:08:52;;;;;;;544.00;380.95;;;5.90;80.30;;;;;;6375944;27;20019;-77
2021/01/20 10:11:53;;;;;;;26.73;24.23;;;5.90;97.70;;;;;;6375864;27;20027;-77
2021/01/20 10:14:54;;;;;;;6.43;4.43;;;6.20;77.30;;;;;;6375917;27;20445;-75
2021/01/20 10:17:54;;;;;;;7.70;5.75;;;6.10;79.70;;;;;;6376088;27;20063;-76
2021/01/20 10:20:55;;;;;;;4.65;3.90;;;6.20;77.30;;;;;;6375871;27;20130;-77
2021/01/20 10:23:55;;;;;;;5.68;4.30;;;5.90;77.80;;;;;;6376016;27;20446;-76
2021/01/20 10:26:57;;;;;;;3.70;3.30;;;6.30;95.60;;;;;;6375769;27;20070;-76
2021/01/20 10:29:57;;;;;;;5.28;4.25;;;6.50;90.90;;;;;;6374617;27;20023;-76
2021/01/20 10:33:00;;;;;;;5.60;3.67;;;6.30;79.90;;;;;;6375434;27;20034;-76
2021/01/20 10:36:00;;;;;;;;;;;6.40;78.10;;;;;;6375721;27;20026;-76
2021/01/20 10:39:02;;;;;;;7.05;4.70;;;6.40;78.30;;;;;;6375552;27;19899;-76
2021/01/20 10:42:03;;;;;;;4.45;3.40;;;6.40;77.60;;;;;;6375289;27;20111;-77
2021/01/20 10:45:04;;;;;;;5.95;3.92;;;6.40;76.60;;;;;;6375451;27;20019;-78
2021/01/20 10:48:05;;;;;;;12.18;7.72;;;6.30;97.30;;;;;;6375113;27;20060;-76
2021/01/20 10:51:06;;;;;;;7.75;6.35;;;6.40;76.30;;;;;;6374960;27;20337;-77
2021/01/20 10:54:06;;;;;;;16.50;8.82;;;6.40;77.30;;;;;;6375044;27;20448;-78
2021/01/20 10:57:08;;;;;;;5.50;4.38;;;6.50;77.10;;;;;;6374755;27;20468;-77
2021/01/20 11:00:09;;;;;;;7.68;4.45;;;6.60;79.10;;;;;;6374912;27;20019;-78
2021/01/20 11:03:09;;;;;;;6.47;3.47;;;6.60;98.00;;;;;;6374557;27;20083;-79
2021/01/20 11:06:10;;;;;;;6.78;4.57;;;6.50;90.10;;;;;;6374725;27;20114;-78
2021/01/20 11:09:11;;;;;;;9.00;6.43;;;6.60;79.10;;;;;;6374582;27;20015;-79
2021/01/20 11:12:11;;;;;;;9.95;6.07;;;6.60;77.20;;;;;;6374527;27;20035;-78
2021/01/20 11:15:12;;;;;;;6.35;4.40;;;6.80;77.90;;;;;;6374462;27;20094;-79
2021/01/20 11:18:17;;;;;;;4.95;3.83;;;6.70;79.10;;;;;;6374637;27;20019;-78
2021/01/20 11:21:17;;;;;;;7.25;4.88;;;6.80;90.50;;;;;;6374774;27;20019;-78
2021/01/20 11:24:18;;;;;;;7.80;4.78;;;6.80;77.30;;;;;;6374210;27;20031;-79
2021/01/20 11:27:19;;;;;;;5.97;4.80;;;7.00;76.90;;;;;;6374330;27;20023;-77
2021/01/20 11:30:20;;;;;;;8.70;4.93;;;7.10;76.80;;;;;;6374120;27;20019;-79
2021/01/20 11:33:20;;;;;;;5.00;3.65;;;7.20;76.40;;;;;;6374189;27;20079;-78
2021/01/20 11:36:21;;;;;;;7.20;5.45;;;7.30;76.20;;;;;;6373973;27;20027;-77
2021/01/20 11:39:22;;;;;;;6.57;4.63;;;7.80;94.90;;;;;;6373784;27;20019;-78
2021/01/20 11:42:22;;;;;;;5.18;3.67;;;7.80;74.20;;;;;;6373755;27;20087;-77
2021/01/20 11:45:27;;;;;;;6.45;4.35;;;8.00;74.50;;;;;;6373800;27;20031;-78
2021/01/20 11:48:28;;;;;;;5.55;4.05;;;8.20;73.70;;;;;;6373934;27;20023;-78
2021/01/20 11:51:28;;;;;;;11.98;7.75;;;8.30;73.00;;;;;;6373582;27;20026;-78
2021/01/20 11:54:29;;;;;;;8.60;4.85;;;8.50;72.10;;;;;;6373656;27;20326;-77
2021/01/20 11:57:31;;;;;;;7.63;4.05;;;8.70;80.70;;;;;;6373549;27;20023;-78
2021/01/20 12:00:31;;;;;;;13.87;5.00;;;9.00;71.30;;;;;;6373564;27;20514;-78
2021/01/20 12:03:33;;;;;;;7.43;4.78;;;9.20;70.60;;;;;;6373514;27;20027;-78
2021/01/20 12:06:34;;;;;;;5.25;3.90;;;9.50;69.90;;;;;;6373582;27;20476;-78
2021/01/20 12:09:35;;;;;;;7.60;4.05;;;9.70;69.00;;;;;;6373299;27;20033;-77
2021/01/20 12:12:35;;;;;;;5.15;4.20;;;9.90;69.10;;;;;;6373392;27;20506;-77
2021/01/20 12:15:36;;;;;;;5.15;4.18;;;10.00;68.40;;;;;;6373041;27;20046;-78
2021/01/20 12:18:37;;;;;;;5.38;3.90;;;10.10;68.10;;;;;;6373069;27;20441;-78
2021/01/20 12:21:38;;;;;;;6.35;3.60;;;10.00;68.20;;;;;;6373259;27;20015;-78
2021/01/20 12:24:38;;;;;;;8.07;3.72;;;9.90;68.20;;;;;;6372940;27;20414;-78
2021/01/20 12:27:39;;;;;;;7.43;3.63;;;9.50;69.30;;;;;;6373157;27;20019;-78
2021/01/20 12:30:40;;;;;;;25.67;18.55;;;9.30;70.50;;;;;;6372816;27;20517;-78
2021/01/20 12:33:41;;;;;;;8.30;5.18;;;9.40;71.00;;;;;;6372889;27;20071;-79
2021/01/20 12:36:41;;;;;;;7.53;4.78;;;9.20;71.10;;;;;;6372717;27;20023;-79
2021/01/20 12:39:42;;;;;;;13.48;10.77;;;9.10;70.20;;;;;;6354550;28;20024;-78
2021/01/20 12:42:42;;;;;;;5.18;4.13;;;9.10;69.90;;;;;;6372791;27;20754;-78
2021/01/20 12:45:43;;;;;;;8.60;5.63;;;8.90;70.50;;;;;;6372987;27;20019;-78
2021/01/20 12:48:43;;;;;;;3.75;2.97;;;8.90;80.50;;;;;;6372857;27;20111;-77
2021/01/20 12:51:44;;;;;;;5.30;3.85;;;8.70;72.10;;;;;;6373688;27;20027;-78
2021/01/20 12:54:45;;;;;;;4.57;3.70;;;8.60;72.60;;;;;;6377853;27;20492;-78
2021/01/20 12:57:46;;;;;;;7.05;4.35;;;8.50;72.80;;;;;;6377771;27;20079;-79
2021/01/20 13:00:46;;;;;;;9.13;5.20;;;8.60;72.50;;;;;;6377954;27;20024;-78
2021/01/20 13:03:47;;;;;;;5.78;3.75;;;8.60;72.90;;;;;;6377473;27;20441;-78
2021/01/20 13:06:48;;;;;;;20.15;11.75;;;8.40;73.20;;;;;;6377794;27;20102;-77
2021/01/20 13:09:50;;;;;;;17.52;9.98;;;8.30;74.10;;;;;;6377505;27;20019;-78
2021/01/20 13:12:51;;;;;;;6.65;4.22;;;8.10;75.00;;;;;;6377789;27;20069;-78
2021/01/20 13:15:52;;;;;;;9.52;5.30;;;8.00;74.40;;;;;;6359311;27;20461;-78
2021/01/20 13:18:52;;;;;;;13.68;7.45;;;7.90;76.60;;;;;;6377328;27;20107;-77
2021/01/20 13:21:54;;;;;;;5.63;4.00;;;7.90;73.80;;;;;;6378733;27;20023;-78
2021/01/20 13:25:10;;;;;;;4.87;3.50;;;8.00;86.20;;;;;;6378454;27;20068;-75
2021/01/20 13:28:11;;;;;;;17.75;10.00;;;7.80;74.80;;;;;;6359033;27;20030;-79
2021/01/20 13:31:11;;;;;;;14.27;8.10;;;7.90;75.10;;;;;;6377051;27;20051;-77
2021/01/20 13:34:12;;;;;;;4.82;3.08;;;7.80;77.80;;;;;;6376897;27;20601;-78
2021/01/20 13:37:12;;;;;;;4.00;2.90;;;7.90;77.90;;;;;;6376880;27;20022;-78
2021/01/20 13:40:13;;;;;;;5.95;3.55;;;8.10;90.10;;;;;;6377025;27;20030;-78
2021/01/20 13:43:14;;;;;;;5.63;3.60;;;7.90;78.50;;;;;;6376833;27;20122;-77
2021/01/20 13:46:15;;;;;;;7.70;5.97;;;7.80;77.70;;;;;;6376951;27;20015;-77
2021/01/20 13:49:15;;;;;;;5.05;3.40;;;7.70;78.10;;;;;;6376590;27;20019;-80
2021/01/20 13:52:16;;;;;;;7.07;3.65;;;7.40;77.80;;;;;;6358146;27;20027;-78
2021/01/20 13:55:16;;;;;;;4.90;3.60;;;7.30;79.90;;;;;;6376495;27;20029;-78
2021/01/20 13:58:17;;;;;;;4.65;3.33;;;7.30;78.70;;;;;;6376298;27;20034;-79
2021/01/20 14:01:18;;;;;;;5.05;3.40;;;7.30;75.10;;;;;;6376580;27;20144;-80
2021/01/20 14:04:18;;;;;;;4.65;2.92;;;7.60;79.70;;;;;;6374553;27;20039;-78
2021/01/20 14:07:19;;;;;;;4.88;3.42;;;7.40;79.00;;;;;;6376412;27;20019;-78
2021/01/20 14:10:19;;;;;;;7.65;3.80;;;7.40;76.80;;;;;;6375904;27;20378;-78
2021/01/20 14:13:20;;;;;;;6.10;3.75;;;7.50;76.30;;;;;;6376254;27;20039;-79
2021/01/20 14:16:21;;;;;;;7.85;3.75;;;7.50;90.10;;;;;;6376062;27;20094;-78
2021/01/20 14:19:21;;;;;;;4.30;2.90;;;7.40;80.30;;;;;;6375860;27;20027;-78
2021/01/20 14:22:23;;;;;;;3.75;3.30;;;7.20;75.70;;;;;;6375746;27;20146;-79
2021/01/20 14:25:23;;;;;;;4.45;3.22;;;7.40;75.80;;;;;;6375685;27;20433;-78
2021/01/20 14:28:24;;;;;;;4.40;2.90;;;7.40;76.00;;;;;;6375729;27;20019;-78
2021/01/20 14:31:25;;;;;;;4.40;2.95;;;7.30;78.90;;;;;;6375639;27;20510;-77
2021/01/20 14:34:26;;;;;;;3.15;2.85;;;7.20;79.80;;;;;;6375507;27;20038;-79
2021/01/20 14:37:26;;;;;;;3.20;2.60;;;7.30;77.00;;;;;;6375510;27;20454;-78
2021/01/20 14:40:27;;;;;;;3.40;2.92;;;7.20;79.70;;;;;;6375340;27;20038;-78
2021/01/20 14:43:28;;;;;;;5.68;3.70;;;7.10;79.60;;;;;;6375323;27;20042;-77
2021/01/20 14:46:28;;;;;;;6.85;3.60;;;6.90;81.80;;;;;;6375096;27;20032;-79
2021/01/20 14:49:29;;;;;;;5.20;2.97;;;6.70;82.80;;;;;;6375340;27;20031;-78
2021/01/20 14:52:29;;;;;;;3.30;2.60;;;6.80;80.70;;;;;;6375028;27;20030;-77
2021/01/20 14:55:30;;;;;;;2.90;2.55;;;7.30;86.50;;;;;;6375104;27;20031;-78
2021/01/20 14:58:30;;;;;;;3.30;2.40;;;7.00;84.90;;;;;;6374911;27;20026;-78
2021/01/20 15:01:31;;;;;;;4.70;2.70;;;7.00;86.30;;;;;;6374976;27;20090;-78
2021/01/20 15:04:32;;;;;;;8.63;2.80;;;7.00;84.40;;;;;;6374544;27;20054;-79
2021/01/20 15:07:32;;;;;;;4.75;3.05;;;6.80;84.50;;;;;;6374884;27;20054;-78
2021/01/20 15:10:33;;;;;;;5.95;3.38;;;6.80;84.50;;;;;;6374538;27;20019;-77
2021/01/20 15:13:34;;;;;;;3.17;2.67;;;7.00;80.60;;;;;;6375012;27;20042;-78
2021/01/20 15:16:34;;;;;;;3.70;2.95;;;6.80;84.40;;;;;;6374232;27;20027;-78
2021/01/20 15:19:35;;;;;;;3.15;2.60;;;7.00;82.90;;;;;;6374387;27;20031;-78
2021/01/20 15:22:36;;;;;;;22.70;12.18;;;6.60;86.50;;;;;;6374862;27;20058;-79
2021/01/20 15:25:36;;;;;;;5.65;4.95;;;6.80;86.20;;;;;;6374263;27;20019;-78
2021/01/20 15:28:37;;;;;;;3.88;2.90;;;6.70;85.30;;;;;;6374163;27;20023;-78
2021/01/20 15:31:38;;;;;;;3.13;2.58;;;6.40;87.20;;;;;;6373916;27;20023;-79
2021/01/20 15:34:38;;;;;;;5.22;3.33;;;6.30;83.40;;;;;;6374233;27;20038;-78
2021/01/20 15:37:39;;;;;;;5.07;3.50;;;6.50;84.50;;;;;;6373830;27;20395;-79
2021/01/20 15:40:40;;;;;;;4.13;3.33;;;6.40;85.10;;;;;;6373817;27;20050;-77
2021/01/20 15:43:40;;;;;;;6.05;3.58;;;5.80;93.90;;;;;;6373888;27;20031;-78
2021/01/20 15:46:41;;;;;;;5.20;3.83;;;5.70;87.30;;;;;;6373642;27;20333;-77
2021/01/20 15:49:42;;;;;;;8.65;4.25;;;5.90;82.10;;;;;;6355443;27;20019;-78
2021/01/20 15:52:42;;;;;;;5.72;3.22;;;6.00;83.60;;;;;;6373532;27;20035;-79
2021/01/20 15:55:43;;;;;;;5.82;3.45;;;5.70;83.80;;;;;;6355311;27;20031;-79
2021/01/20 15:58:44;;;;;;;5.88;3.38;;;6.20;86.20;;;;;;6373461;27;20511;-77
2021/01/20 16:01:45;;;;;;;5.53;4.22;;;5.90;85.80;;;;;;6373686;27;20019;-78